Rockham, South Dakota
Current Conditions -  °F | °C
As of 7:53 PM on Tuesday 21 Oct 2014 (Local Time) from KABR Reporting Station
Clear Clear  
Wind Chill: 67°   Ceiling: Unl
Heat Index: 67°   Visibility: 10mi
Dew Point: 44°   Wind: 16mph
Humidity: 44%   Direction: 140°SE
Pressure: 29.84"   Gusts: NA
Location:  44.9°N, 98.82°W
Report Text: KABR 220053Z AUTO 14014KT 10SM CLR 19/07 A2984 RMK AO2 SLP103 T01940067
Loading
Personal Weather Stations






























Interactive Weather Map
Tropical Storm Tracking
New forecast layout! Learn more

10-Day Weather Forecast

Advertisements
Track Severe Weather on mobile